sensor_id;sensor_type;location;lat;lon;timestamp;P1;durP1;ratioP1;P2;durP2;ratioP2
13799;SDS011;6971;50.028;9.258;2023-02-28T00:03:07;2.93;;;2.67;;
13799;SDS011;6971;50.028;9.258;2023-02-28T00:08:08;3.03;;;2.50;;
13799;SDS011;6971;50.028;9.258;2023-02-28T00:13:09;3.53;;;2.60;;
13799;SDS011;6971;50.028;9.258;2023-02-28T00:18:09;3.70;;;2.40;;
13799;SDS011;6971;50.028;9.258;2023-02-28T00:23:09;7.23;;;2.40;;
13799;SDS011;6971;50.028;9.258;2023-02-28T00:28:10;3.30;;;2.60;;
13799;SDS011;6971;50.028;9.258;2023-02-28T00:33:10;3.00;;;2.70;;
13799;SDS011;6971;50.028;9.258;2023-02-28T00:38:10;3.20;;;2.77;;
13799;SDS011;6971;50.028;9.258;2023-02-28T00:43:11;4.13;;;2.53;;
13799;SDS011;6971;50.028;9.258;2023-02-28T00:48:11;3.30;;;3.00;;
13799;SDS011;6971;50.028;9.258;2023-02-28T00:53:12;2.70;;;2.50;;
13799;SDS011;6971;50.028;9.258;2023-02-28T00:58:12;3.73;;;3.03;;
13799;SDS011;6971;50.028;9.258;2023-02-28T01:03:12;3.87;;;3.47;;
13799;SDS011;6971;50.028;9.258;2023-02-28T01:08:13;3.73;;;3.30;;
13799;SDS011;6971;50.028;9.258;2023-02-28T01:13:13;3.10;;;2.80;;
13799;SDS011;6971;50.028;9.258;2023-02-28T01:18:14;3.73;;;3.33;;
13799;SDS011;6971;50.028;9.258;2023-02-28T01:23:14;4.47;;;3.20;;
13799;SDS011;6971;50.028;9.258;2023-02-28T01:28:14;4.43;;;2.83;;
13799;SDS011;6971;50.028;9.258;2023-02-28T01:33:15;3.93;;;3.57;;
13799;SDS011;6971;50.028;9.258;2023-02-28T01:38:15;3.30;;;3.00;;
13799;SDS011;6971;50.028;9.258;2023-02-28T01:43:23;3.57;;;3.17;;
13799;SDS011;6971;50.028;9.258;2023-02-28T01:48:27;3.60;;;3.30;;
13799;SDS011;6971;50.028;9.258;2023-02-28T01:53:32;4.03;;;3.40;;
13799;SDS011;6971;50.028;9.258;2023-02-28T01:58:36;3.67;;;3.37;;
13799;SDS011;6971;50.028;9.258;2023-02-28T02:03:37;4.70;;;4.00;;
13799;SDS011;6971;50.028;9.258;2023-02-28T02:08:37;4.03;;;3.60;;
13799;SDS011;6971;50.028;9.258;2023-02-28T02:13:42;4.43;;;3.40;;
13799;SDS011;6971;50.028;9.258;2023-02-28T02:29:40;4.33;;;3.73;;
13799;SDS011;6971;50.028;9.258;2023-02-28T02:35:15;4.03;;;3.53;;
13799;SDS011;6971;50.028;9.258;2023-02-28T02:40:19;4.90;;;3.23;;
13799;SDS011;6971;50.028;9.258;2023-02-28T02:45:34;3.80;;;3.30;;
13799;SDS011;6971;50.028;9.258;2023-02-28T02:50:41;3.50;;;3.20;;
13799;SDS011;6971;50.028;9.258;2023-02-28T02:55:46;4.63;;;3.50;;
13799;SDS011;6971;50.028;9.258;2023-02-28T03:00:56;4.17;;;3.70;;
13799;SDS011;6971;50.028;9.258;2023-02-28T03:06:00;4.57;;;3.43;;
13799;SDS011;6971;50.028;9.258;2023-02-28T03:11:03;5.17;;;4.00;;
13799;SDS011;6971;50.028;9.258;2023-02-28T03:21:38;4.37;;;3.97;;
13799;SDS011;6971;50.028;9.258;2023-02-28T03:26:44;4.10;;;3.70;;
13799;SDS011;6971;50.028;9.258;2023-02-28T03:31:50;4.77;;;3.83;;
13799;SDS011;6971;50.028;9.258;2023-02-28T03:36:55;4.83;;;4.00;;
13799;SDS011;6971;50.028;9.258;2023-02-28T03:42:00;5.27;;;3.40;;
13799;SDS011;6971;50.028;9.258;2023-02-28T03:47:19;4.57;;;3.50;;
13799;SDS011;6971;50.028;9.258;2023-02-28T03:52:25;4.37;;;3.93;;
13799;SDS011;6971;50.028;9.258;2023-02-28T03:57:36;5.07;;;4.27;;
13799;SDS011;6971;50.028;9.258;2023-02-28T04:02:43;4.30;;;3.90;;
13799;SDS011;6971;50.028;9.258;2023-02-28T04:07:43;4.10;;;3.70;;
13799;SDS011;6971;50.028;9.258;2023-02-28T04:12:44;4.83;;;3.97;;
13799;SDS011;6971;50.028;9.258;2023-02-28T04:17:44;3.93;;;3.47;;
13799;SDS011;6971;50.028;9.258;2023-02-28T04:22:44;5.35;;;3.38;;
13799;SDS011;6971;50.028;9.258;2023-02-28T04:27:45;4.03;;;3.53;;
13799;SDS011;6971;50.028;9.258;2023-02-28T04:32:45;4.03;;;3.40;;
13799;SDS011;6971;50.028;9.258;2023-02-28T04:37:45;5.50;;;4.00;;
13799;SDS011;6971;50.028;9.258;2023-02-28T04:42:45;5.87;;;4.00;;
13799;SDS011;6971;50.028;9.258;2023-02-28T04:47:46;7.40;;;4.53;;
13799;SDS011;6971;50.028;9.258;2023-02-28T04:52:46;4.37;;;3.90;;
13799;SDS011;6971;50.028;9.258;2023-02-28T04:57:49;4.53;;;3.93;;
13799;SDS011;6971;50.028;9.258;2023-02-28T05:02:49;4.50;;;3.80;;
13799;SDS011;6971;50.028;9.258;2023-02-28T05:07:50;4.50;;;3.50;;
13799;SDS011;6971;50.028;9.258;2023-02-28T05:12:51;4.17;;;3.70;;
13799;SDS011;6971;50.028;9.258;2023-02-28T05:17:52;4.93;;;3.70;;
13799;SDS011;6971;50.028;9.258;2023-02-28T05:22:52;5.40;;;4.50;;
13799;SDS011;6971;50.028;9.258;2023-02-28T05:27:52;4.87;;;3.33;;
13799;SDS011;6971;50.028;9.258;2023-02-28T05:32:53;4.70;;;3.73;;
13799;SDS011;6971;50.028;9.258;2023-02-28T05:37:53;5.00;;;3.27;;
13799;SDS011;6971;50.028;9.258;2023-02-28T05:42:53;4.23;;;3.60;;
13799;SDS011;6971;50.028;9.258;2023-02-28T05:47:54;4.53;;;3.63;;
13799;SDS011;6971;50.028;9.258;2023-02-28T05:52:55;4.23;;;3.83;;
13799;SDS011;6971;50.028;9.258;2023-02-28T05:57:55;4.50;;;3.70;;
13799;SDS011;6971;50.028;9.258;2023-02-28T06:02:56;5.63;;;3.80;;
13799;SDS011;6971;50.028;9.258;2023-02-28T06:07:58;6.73;;;5.10;;
13799;SDS011;6971;50.028;9.258;2023-02-28T06:13:01;5.07;;;4.30;;
13799;SDS011;6971;50.028;9.258;2023-02-28T06:18:03;4.63;;;4.20;;
13799;SDS011;6971;50.028;9.258;2023-02-28T06:23:04;4.70;;;4.03;;
13799;SDS011;6971;50.028;9.258;2023-02-28T06:28:04;4.57;;;4.10;;
13799;SDS011;6971;50.028;9.258;2023-02-28T06:33:05;4.83;;;4.40;;
13799;SDS011;6971;50.028;9.258;2023-02-28T06:38:05;4.90;;;4.23;;
13799;SDS011;6971;50.028;9.258;2023-02-28T06:43:05;6.63;;;4.10;;
13799;SDS011;6971;50.028;9.258;2023-02-28T06:48:06;4.27;;;3.60;;
13799;SDS011;6971;50.028;9.258;2023-02-28T06:53:07;4.70;;;4.20;;
13799;SDS011;6971;50.028;9.258;2023-02-28T06:58:07;4.80;;;4.00;;
13799;SDS011;6971;50.028;9.258;2023-02-28T07:03:14;4.37;;;3.97;;
13799;SDS011;6971;50.028;9.258;2023-02-28T07:08:15;5.73;;;4.83;;
13799;SDS011;6971;50.028;9.258;2023-02-28T07:13:15;6.60;;;3.67;;
13799;SDS011;6971;50.028;9.258;2023-02-28T07:18:16;5.13;;;4.10;;
13799;SDS011;6971;50.028;9.258;2023-02-28T07:23:17;5.53;;;4.50;;
13799;SDS011;6971;50.028;9.258;2023-02-28T07:28:17;6.43;;;3.67;;
13799;SDS011;6971;50.028;9.258;2023-02-28T07:33:18;4.30;;;3.90;;
13799;SDS011;6971;50.028;9.258;2023-02-28T07:38:18;5.10;;;3.70;;
13799;SDS011;6971;50.028;9.258;2023-02-28T07:43:19;55.80;;;29.00;;
13799;SDS011;6971;50.028;9.258;2023-02-28T07:48:19;7.40;;;5.87;;
13799;SDS011;6971;50.028;9.258;2023-02-28T07:53:20;6.30;;;5.33;;
13799;SDS011;6971;50.028;9.258;2023-02-28T07:58:20;7.00;;;5.67;;
13799;SDS011;6971;50.028;9.258;2023-02-28T08:03:21;7.10;;;5.70;;
13799;SDS011;6971;50.028;9.258;2023-02-28T08:08:22;7.13;;;5.23;;
13799;SDS011;6971;50.028;9.258;2023-02-28T08:13:23;5.17;;;4.30;;
13799;SDS011;6971;50.028;9.258;2023-02-28T08:18:24;5.23;;;4.63;;
13799;SDS011;6971;50.028;9.258;2023-02-28T08:23:25;5.97;;;5.20;;
13799;SDS011;6971;50.028;9.258;2023-02-28T08:28:25;8.03;;;5.37;;
13799;SDS011;6971;50.028;9.258;2023-02-28T08:33:26;7.10;;;5.60;;
13799;SDS011;6971;50.028;9.258;2023-02-28T08:38:27;6.37;;;5.77;;
13799;SDS011;6971;50.028;9.258;2023-02-28T08:43:28;7.30;;;5.73;;
13799;SDS011;6971;50.028;9.258;2023-02-28T08:48:29;9.23;;;6.63;;
13799;SDS011;6971;50.028;9.258;2023-02-28T08:53:30;6.77;;;4.90;;
13799;SDS011;6971;50.028;9.258;2023-02-28T08:58:32;22.47;;;11.17;;
13799;SDS011;6971;50.028;9.258;2023-02-28T09:03:34;5.50;;;4.70;;
13799;SDS011;6971;50.028;9.258;2023-02-28T09:08:34;7.30;;;5.33;;
13799;SDS011;6971;50.028;9.258;2023-02-28T09:13:36;5.50;;;5.00;;
13799;SDS011;6971;50.028;9.258;2023-02-28T09:18:37;5.53;;;4.90;;
13799;SDS011;6971;50.028;9.258;2023-02-28T09:23:38;7.00;;;5.70;;
13799;SDS011;6971;50.028;9.258;2023-02-28T09:28:38;5.60;;;4.47;;
13799;SDS011;6971;50.028;9.258;2023-02-28T09:33:39;7.67;;;5.60;;
13799;SDS011;6971;50.028;9.258;2023-02-28T09:38:39;6.50;;;5.00;;
13799;SDS011;6971;50.028;9.258;2023-02-28T09:43:41;6.80;;;5.40;;
13799;SDS011;6971;50.028;9.258;2023-02-28T09:48:45;7.50;;;4.80;;
13799;SDS011;6971;50.028;9.258;2023-02-28T09:53:48;6.80;;;4.93;;
13799;SDS011;6971;50.028;9.258;2023-02-28T09:58:49;5.50;;;4.47;;
13799;SDS011;6971;50.028;9.258;2023-02-28T10:03:55;5.43;;;4.30;;
13799;SDS011;6971;50.028;9.258;2023-02-28T10:09:00;5.93;;;4.97;;
13799;SDS011;6971;50.028;9.258;2023-02-28T10:19:23;6.03;;;4.47;;
13799;SDS011;6971;50.028;9.258;2023-02-28T10:24:55;6.37;;;5.40;;
13799;SDS011;6971;50.028;9.258;2023-02-28T10:30:00;5.60;;;4.73;;
13799;SDS011;6971;50.028;9.258;2023-02-28T10:40:27;8.17;;;6.70;;
13799;SDS011;6971;50.028;9.258;2023-02-28T10:45:34;7.03;;;5.97;;
13799;SDS011;6971;50.028;9.258;2023-02-28T11:01:13;5.37;;;4.87;;
13799;SDS011;6971;50.028;9.258;2023-02-28T11:11:18;7.90;;;6.10;;
13799;SDS011;6971;50.028;9.258;2023-02-28T11:16:21;11.67;;;8.17;;
13799;SDS011;6971;50.028;9.258;2023-02-28T11:21:32;6.87;;;6.17;;
13799;SDS011;6971;50.028;9.258;2023-02-28T11:26:37;6.67;;;5.67;;
13799;SDS011;6971;50.028;9.258;2023-02-28T11:31:40;8.53;;;6.20;;
13799;SDS011;6971;50.028;9.258;2023-02-28T11:36:40;6.73;;;5.70;;
13799;SDS011;6971;50.028;9.258;2023-02-28T11:47:17;7.40;;;6.30;;
13799;SDS011;6971;50.028;9.258;2023-02-28T11:52:48;6.97;;;5.00;;
13799;SDS011;6971;50.028;9.258;2023-02-28T11:57:59;6.40;;;5.77;;
13799;SDS011;6971;50.028;9.258;2023-02-28T12:35:22;9.33;;;6.50;;
13799;SDS011;6971;50.028;9.258;2023-02-28T12:40:41;8.23;;;6.43;;
13799;SDS011;6971;50.028;9.258;2023-02-28T12:50:48;9.07;;;6.63;;
13799;SDS011;6971;50.028;9.258;2023-02-28T12:55:50;6.73;;;6.03;;
13799;SDS011;6971;50.028;9.258;2023-02-28T13:12:12;7.83;;;7.13;;
13799;SDS011;6971;50.028;9.258;2023-02-28T13:17:17;6.73;;;6.03;;
13799;SDS011;6971;50.028;9.258;2023-02-28T13:27:38;7.90;;;5.90;;
13799;SDS011;6971;50.028;9.258;2023-02-28T13:32:40;9.27;;;6.40;;
13799;SDS011;6971;50.028;9.258;2023-02-28T13:37:44;7.57;;;6.10;;
13799;SDS011;6971;50.028;9.258;2023-02-28T13:42:48;10.30;;;5.93;;
13799;SDS011;6971;50.028;9.258;2023-02-28T13:48:03;6.80;;;6.10;;
13799;SDS011;6971;50.028;9.258;2023-02-28T14:09:00;7.10;;;6.27;;
13799;SDS011;6971;50.028;9.258;2023-02-28T14:14:05;7.40;;;5.93;;
13799;SDS011;6971;50.028;9.258;2023-02-28T14:19:14;7.23;;;6.53;;
13799;SDS011;6971;50.028;9.258;2023-02-28T14:24:24;8.00;;;6.20;;
13799;SDS011;6971;50.028;9.258;2023-02-28T14:34:53;9.20;;;6.90;;
13799;SDS011;6971;50.028;9.258;2023-02-28T14:40:02;7.30;;;6.60;;
13799;SDS011;6971;50.028;9.258;2023-02-28T14:45:04;8.63;;;6.60;;
13799;SDS011;6971;50.028;9.258;2023-02-28T14:50:05;8.17;;;6.23;;
13799;SDS011;6971;50.028;9.258;2023-02-28T14:55:13;8.80;;;6.93;;
13799;SDS011;6971;50.028;9.258;2023-02-28T15:00:27;6.07;;;5.43;;
13799;SDS011;6971;50.028;9.258;2023-02-28T15:05:30;7.97;;;6.17;;
13799;SDS011;6971;50.028;9.258;2023-02-28T15:10:32;9.23;;;7.13;;
13799;SDS011;6971;50.028;9.258;2023-02-28T15:15:44;7.60;;;6.47;;
13799;SDS011;6971;50.028;9.258;2023-02-28T15:20:50;8.97;;;7.30;;
13799;SDS011;6971;50.028;9.258;2023-02-28T15:25:51;9.13;;;7.77;;
13799;SDS011;6971;50.028;9.258;2023-02-28T15:30:58;7.73;;;6.53;;
13799;SDS011;6971;50.028;9.258;2023-02-28T15:36:14;9.37;;;8.00;;
13799;SDS011;6971;50.028;9.258;2023-02-28T15:41:24;11.97;;;9.00;;
13799;SDS011;6971;50.028;9.258;2023-02-28T15:46:35;9.37;;;8.20;;
13799;SDS011;6971;50.028;9.258;2023-02-28T15:51:36;6.47;;;5.87;;
13799;SDS011;6971;50.028;9.258;2023-02-28T15:56:39;8.20;;;7.17;;
13799;SDS011;6971;50.028;9.258;2023-02-28T16:01:46;20.27;;;11.63;;
13799;SDS011;6971;50.028;9.258;2023-02-28T16:07:05;30.73;;;15.97;;
13799;SDS011;6971;50.028;9.258;2023-02-28T16:12:08;13.23;;;10.10;;
13799;SDS011;6971;50.028;9.258;2023-02-28T16:17:23;9.93;;;6.00;;
13799;SDS011;6971;50.028;9.258;2023-02-28T16:22:25;7.40;;;5.63;;
13799;SDS011;6971;50.028;9.258;2023-02-28T16:27:28;7.30;;;6.07;;
13799;SDS011;6971;50.028;9.258;2023-02-28T16:32:32;8.07;;;6.30;;
13799;SDS011;6971;50.028;9.258;2023-02-28T16:37:35;7.23;;;5.67;;
13799;SDS011;6971;50.028;9.258;2023-02-28T16:42:37;5.50;;;4.90;;
13799;SDS011;6971;50.028;9.258;2023-02-28T16:47:38;7.27;;;4.70;;
13799;SDS011;6971;50.028;9.258;2023-02-28T16:52:38;6.65;;;4.88;;
13799;SDS011;6971;50.028;9.258;2023-02-28T16:57:39;5.07;;;4.10;;
13799;SDS011;6971;50.028;9.258;2023-02-28T17:02:40;5.13;;;4.60;;
13799;SDS011;6971;50.028;9.258;2023-02-28T17:07:42;23.37;;;13.87;;
13799;SDS011;6971;50.028;9.258;2023-02-28T17:12:43;5.13;;;4.57;;
13799;SDS011;6971;50.028;9.258;2023-02-28T17:17:47;5.47;;;4.40;;
13799;SDS011;6971;50.028;9.258;2023-02-28T17:22:57;6.37;;;5.20;;
13799;SDS011;6971;50.028;9.258;2023-02-28T17:27:58;8.57;;;5.33;;
13799;SDS011;6971;50.028;9.258;2023-02-28T17:32:58;6.90;;;5.30;;
13799;SDS011;6971;50.028;9.258;2023-02-28T17:37:58;9.27;;;6.40;;
13799;SDS011;6971;50.028;9.258;2023-02-28T17:42:59;9.27;;;6.72;;
13799;SDS011;6971;50.028;9.258;2023-02-28T17:47:59;9.80;;;7.03;;
13799;SDS011;6971;50.028;9.258;2023-02-28T17:52:59;9.77;;;6.50;;
13799;SDS011;6971;50.028;9.258;2023-02-28T17:58:00;8.00;;;6.00;;
13799;SDS011;6971;50.028;9.258;2023-02-28T18:03:00;7.67;;;5.93;;
13799;SDS011;6971;50.028;9.258;2023-02-28T18:08:01;9.40;;;5.90;;
13799;SDS011;6971;50.028;9.258;2023-02-28T18:13:01;7.77;;;6.07;;
13799;SDS011;6971;50.028;9.258;2023-02-28T18:18:03;6.47;;;5.70;;
13799;SDS011;6971;50.028;9.258;2023-02-28T18:23:05;7.33;;;5.37;;
13799;SDS011;6971;50.028;9.258;2023-02-28T18:28:06;7.90;;;6.10;;
13799;SDS011;6971;50.028;9.258;2023-02-28T18:33:06;6.75;;;6.05;;
13799;SDS011;6971;50.028;9.258;2023-02-28T18:38:08;6.93;;;5.23;;
13799;SDS011;6971;50.028;9.258;2023-02-28T18:43:11;6.90;;;5.43;;
13799;SDS011;6971;50.028;9.258;2023-02-28T18:48:11;7.43;;;5.57;;
13799;SDS011;6971;50.028;9.258;2023-02-28T18:53:13;7.10;;;5.70;;
13799;SDS011;6971;50.028;9.258;2023-02-28T18:58:14;7.87;;;5.70;;
13799;SDS011;6971;50.028;9.258;2023-02-28T19:03:14;7.43;;;5.73;;
13799;SDS011;6971;50.028;9.258;2023-02-28T19:08:15;7.18;;;5.47;;
13799;SDS011;6971;50.028;9.258;2023-02-28T19:13:15;7.63;;;5.80;;
13799;SDS011;6971;50.028;9.258;2023-02-28T19:18:16;11.03;;;6.70;;
13799;SDS011;6971;50.028;9.258;2023-02-28T19:23:16;8.30;;;7.27;;
13799;SDS011;6971;50.028;9.258;2023-02-28T19:28:18;14.23;;;8.20;;
13799;SDS011;6971;50.028;9.258;2023-02-28T19:33:19;16.33;;;8.53;;
13799;SDS011;6971;50.028;9.258;2023-02-28T19:38:19;8.03;;;6.60;;
13799;SDS011;6971;50.028;9.258;2023-02-28T19:43:20;9.40;;;7.63;;
13799;SDS011;6971;50.028;9.258;2023-02-28T19:48:20;13.07;;;7.77;;
13799;SDS011;6971;50.028;9.258;2023-02-28T19:53:25;13.00;;;9.33;;
13799;SDS011;6971;50.028;9.258;2023-02-28T19:58:26;12.37;;;8.53;;
13799;SDS011;6971;50.028;9.258;2023-02-28T20:03:26;8.63;;;7.43;;
13799;SDS011;6971;50.028;9.258;2023-02-28T20:08:27;9.77;;;7.27;;
13799;SDS011;6971;50.028;9.258;2023-02-28T20:13:27;8.93;;;6.83;;
13799;SDS011;6971;50.028;9.258;2023-02-28T20:18:28;11.63;;;6.77;;
13799;SDS011;6971;50.028;9.258;2023-02-28T20:23:28;10.20;;;7.30;;
13799;SDS011;6971;50.028;9.258;2023-02-28T20:28:28;9.70;;;6.80;;
13799;SDS011;6971;50.028;9.258;2023-02-28T20:33:29;11.07;;;7.37;;
13799;SDS011;6971;50.028;9.258;2023-02-28T20:38:29;10.10;;;8.13;;
13799;SDS011;6971;50.028;9.258;2023-02-28T20:43:30;13.13;;;8.23;;
13799;SDS011;6971;50.028;9.258;2023-02-28T20:48:30;12.27;;;9.10;;
13799;SDS011;6971;50.028;9.258;2023-02-28T20:53:32;11.13;;;8.43;;
13799;SDS011;6971;50.028;9.258;2023-02-28T20:58:35;14.93;;;9.63;;
13799;SDS011;6971;50.028;9.258;2023-02-28T21:03:55;12.30;;;8.07;;
13799;SDS011;6971;50.028;9.258;2023-02-28T21:08:58;10.47;;;8.53;;
13799;SDS011;6971;50.028;9.258;2023-02-28T21:13:59;13.93;;;8.50;;
13799;SDS011;6971;50.028;9.258;2023-02-28T21:19:00;14.03;;;9.50;;
13799;SDS011;6971;50.028;9.258;2023-02-28T21:24:04;11.20;;;7.90;;
13799;SDS011;6971;50.028;9.258;2023-02-28T21:29:05;15.43;;;10.83;;
13799;SDS011;6971;50.028;9.258;2023-02-28T21:34:07;15.43;;;11.20;;
13799;SDS011;6971;50.028;9.258;2023-02-28T21:39:13;12.90;;;8.83;;
13799;SDS011;6971;50.028;9.258;2023-02-28T21:44:18;13.10;;;9.80;;
13799;SDS011;6971;50.028;9.258;2023-02-28T21:49:18;11.13;;;7.70;;
13799;SDS011;6971;50.028;9.258;2023-02-28T21:54:18;13.13;;;7.70;;
13799;SDS011;6971;50.028;9.258;2023-02-28T21:59:19;10.90;;;8.43;;
13799;SDS011;6971;50.028;9.258;2023-02-28T22:04:19;9.77;;;7.80;;
13799;SDS011;6971;50.028;9.258;2023-02-28T22:09:20;12.40;;;9.10;;
13799;SDS011;6971;50.028;9.258;2023-02-28T22:14:21;16.17;;;9.20;;
13799;SDS011;6971;50.028;9.258;2023-02-28T22:19:21;14.57;;;9.10;;
13799;SDS011;6971;50.028;9.258;2023-02-28T22:24:22;12.00;;;10.03;;
13799;SDS011;6971;50.028;9.258;2023-02-28T22:29:23;15.87;;;9.67;;
13799;SDS011;6971;50.028;9.258;2023-02-28T22:34:23;15.87;;;10.53;;
13799;SDS011;6971;50.028;9.258;2023-02-28T22:39:24;13.47;;;9.77;;
13799;SDS011;6971;50.028;9.258;2023-02-28T22:44:24;15.10;;;10.87;;
13799;SDS011;6971;50.028;9.258;2023-02-28T22:49:24;14.97;;;9.53;;
13799;SDS011;6971;50.028;9.258;2023-02-28T22:54:25;14.40;;;9.60;;
13799;SDS011;6971;50.028;9.258;2023-02-28T22:59:25;16.67;;;11.40;;
13799;SDS011;6971;50.028;9.258;2023-02-28T23:04:26;18.00;;;12.07;;
13799;SDS011;6971;50.028;9.258;2023-02-28T23:09:26;14.73;;;11.37;;
13799;SDS011;6971;50.028;9.258;2023-02-28T23:14:26;16.00;;;11.20;;
13799;SDS011;6971;50.028;9.258;2023-02-28T23:19:30;17.25;;;10.70;;
13799;SDS011;6971;50.028;9.258;2023-02-28T23:24:32;14.90;;;10.90;;
13799;SDS011;6971;50.028;9.258;2023-02-28T23:29:34;18.70;;;11.67;;
13799;SDS011;6971;50.028;9.258;2023-02-28T23:34:34;22.27;;;15.20;;
13799;SDS011;6971;50.028;9.258;2023-02-28T23:39:35;17.50;;;13.93;;
13799;SDS011;6971;50.028;9.258;2023-02-28T23:44:35;17.40;;;11.10;;
13799;SDS011;6971;50.028;9.258;2023-02-28T23:49:35;17.13;;;12.23;;
13799;SDS011;6971;50.028;9.258;2023-02-28T23:54:36;21.17;;;13.60;;
13799;SDS011;6971;50.028;9.258;2023-02-28T23:59:36;19.07;;;11.73;;
